createdAt,value
2023-01-29T00:01:26.421Z,-3.45
2023-01-29T00:03:53.971Z,-3.45
2023-01-29T00:06:23.313Z,-3.44
2023-01-29T00:08:50.838Z,-3.45
2023-01-29T00:11:18.385Z,-3.44
2023-01-29T00:13:45.890Z,-3.43
2023-01-29T00:16:13.384Z,-3.42
2023-01-29T00:18:41.024Z,-3.40
2023-01-29T00:21:08.558Z,-3.39
2023-01-29T00:23:36.040Z,-3.39
2023-01-29T00:26:03.583Z,-3.41
2023-01-29T00:28:31.233Z,-3.38
2023-01-29T00:30:58.905Z,-3.37
2023-01-29T00:33:26.464Z,-3.36
2023-01-29T00:35:54.042Z,-3.36
2023-01-29T00:38:21.566Z,-3.34
2023-01-29T00:41:22.074Z,-3.32
2023-01-29T00:44:08.284Z,-3.28
2023-01-29T00:46:35.995Z,-3.26
2023-01-29T00:49:03.575Z,-3.26
2023-01-29T00:51:31.117Z,-3.27
2023-01-29T00:53:58.670Z,-3.30
2023-01-29T00:56:26.174Z,-3.35
2023-01-29T00:58:53.666Z,-3.38
2023-01-29T01:01:41.266Z,-3.39
2023-01-29T01:04:08.895Z,-3.38
2023-01-29T01:06:36.464Z,-3.39
2023-01-29T01:09:22.718Z,-3.39
2023-01-29T01:11:50.282Z,-3.44
2023-01-29T01:14:17.835Z,-3.48
2023-01-29T01:16:45.440Z,-3.51
2023-01-29T01:19:13.671Z,-3.52
2023-01-29T01:21:45.371Z,-3.50
2023-01-29T01:24:13.001Z,-3.47
2023-01-29T01:26:40.620Z,-3.44
2023-01-29T01:29:08.101Z,-3.41
2023-01-29T01:31:35.695Z,-3.38
2023-01-29T01:34:03.300Z,-3.38
2023-01-29T01:36:32.365Z,-3.37
2023-01-29T01:39:00.112Z,-3.36
2023-01-29T01:41:27.758Z,-3.36
2023-01-29T01:43:55.652Z,-3.35
2023-01-29T01:46:23.692Z,-3.32
2023-01-29T01:48:51.172Z,-3.31
2023-01-29T01:51:18.669Z,-3.31
2023-01-29T01:53:46.275Z,-3.29
2023-01-29T01:56:13.806Z,-3.27
2023-01-29T01:58:41.305Z,-3.26
2023-01-29T02:01:08.961Z,-3.21
2023-01-29T02:03:55.229Z,-3.17
2023-01-29T02:06:41.888Z,-3.15
2023-01-29T02:09:28.453Z,-3.16
2023-01-29T02:11:56.009Z,-3.16
2023-01-29T02:14:23.626Z,-3.15
2023-01-29T02:16:51.120Z,-3.18
2023-01-29T02:19:18.995Z,-3.20
2023-01-29T02:21:46.600Z,-3.19
2023-01-29T02:24:14.284Z,-3.21
2023-01-29T02:26:41.976Z,-3.21
2023-01-29T02:29:26.962Z,-3.23
2023-01-29T02:31:54.552Z,-3.25
2023-01-29T02:34:22.240Z,-3.27
2023-01-29T02:36:49.769Z,-3.29
2023-01-29T02:39:17.393Z,-3.28
2023-01-29T02:41:44.989Z,-3.28
2023-01-29T02:44:12.475Z,-3.29
2023-01-29T02:46:40.140Z,-3.27
2023-01-29T02:49:07.647Z,-3.26
2023-01-29T02:51:35.419Z,-3.26
2023-01-29T02:54:02.995Z,-3.27
2023-01-29T02:56:31.300Z,-3.27
2023-01-29T02:58:58.840Z,-3.27
2023-01-29T03:01:26.499Z,-3.25
2023-01-29T03:03:54.079Z,-3.23
2023-01-29T03:06:22.258Z,-3.19
2023-01-29T03:08:50.205Z,-3.19
2023-01-29T03:11:17.804Z,-3.16
2023-01-29T03:13:45.317Z,-3.14
2023-01-29T03:16:12.870Z,-3.14
2023-01-29T03:18:46.109Z,-3.13
2023-01-29T03:21:32.971Z,-3.09
2023-01-29T03:24:19.461Z,-3.07
2023-01-29T03:27:05.736Z,-3.02
2023-01-29T03:29:52.412Z,-3.01
2023-01-29T03:32:19.960Z,-3.06
2023-01-29T03:34:47.478Z,-3.10
2023-01-29T03:37:15.213Z,-3.14
2023-01-29T03:39:42.758Z,-3.22
2023-01-29T03:42:10.505Z,-3.26
2023-01-29T03:44:40.279Z,-3.32
2023-01-29T03:47:08.074Z,-3.35
2023-01-29T03:49:35.562Z,-3.37
2023-01-29T03:52:03.125Z,-3.41
2023-01-29T03:54:30.708Z,-3.44
2023-01-29T03:56:58.262Z,-3.44
2023-01-29T03:59:25.728Z,-3.46
2023-01-29T04:01:53.259Z,-3.46
2023-01-29T04:04:20.848Z,-3.46
2023-01-29T04:06:48.665Z,-3.46
2023-01-29T04:09:16.276Z,-3.47
2023-01-29T04:11:43.901Z,-3.48
2023-01-29T04:14:11.392Z,-3.48
2023-01-29T04:16:38.950Z,-3.48
2023-01-29T04:19:06.478Z,-3.48
2023-01-29T04:21:34.208Z,-3.51
2023-01-29T04:24:01.784Z,-3.52
2023-01-29T04:26:29.289Z,-3.52
2023-01-29T04:28:56.829Z,-3.54
2023-01-29T04:31:24.498Z,-3.58
2023-01-29T04:33:52.058Z,-3.62
2023-01-29T04:36:19.574Z,-3.64
2023-01-29T04:38:47.153Z,-3.66
2023-01-29T04:41:14.717Z,-3.70
2023-01-29T04:43:42.204Z,-3.72
2023-01-29T04:46:09.713Z,-3.75
2023-01-29T04:48:37.293Z,-3.77
2023-01-29T04:51:05.438Z,-3.80
2023-01-29T04:53:33.026Z,-3.82
2023-01-29T04:56:00.593Z,-3.84
2023-01-29T04:58:28.121Z,-3.85
2023-01-29T05:00:55.851Z,-3.87
2023-01-29T05:03:23.358Z,-3.85
2023-01-29T05:05:50.876Z,-3.84
2023-01-29T05:08:18.691Z,-3.84
2023-01-29T05:10:46.221Z,-3.83
2023-01-29T05:13:13.705Z,-3.81
2023-01-29T05:15:41.522Z,-3.81
2023-01-29T05:18:09.158Z,-3.78
2023-01-29T05:20:36.832Z,-3.77
2023-01-29T05:23:04.630Z,-3.76
2023-01-29T05:25:32.100Z,-3.75
2023-01-29T05:28:16.277Z,-3.76
2023-01-29T05:30:44.388Z,-3.76
2023-01-29T05:33:11.967Z,-3.77
2023-01-29T05:35:39.547Z,-3.78
2023-01-29T05:38:07.083Z,-3.77
2023-01-29T05:40:34.735Z,-3.71
2023-01-29T05:43:02.549Z,-3.70
2023-01-29T05:45:30.085Z,-3.73
2023-01-29T05:47:57.878Z,-3.74
2023-01-29T05:50:25.447Z,-3.76
2023-01-29T05:52:52.925Z,-3.77
2023-01-29T05:55:20.492Z,-3.78
2023-01-29T05:57:48.030Z,-3.81
2023-01-29T06:00:15.831Z,-3.81
2023-01-29T06:02:43.540Z,-3.82
2023-01-29T06:05:11.414Z,-3.82
2023-01-29T06:07:41.740Z,-3.83
2023-01-29T06:10:11.581Z,-3.80
2023-01-29T06:12:39.132Z,-3.76
2023-01-29T06:15:06.667Z,-3.74
2023-01-29T06:17:34.162Z,-3.73
2023-01-29T06:20:01.755Z,-3.77
2023-01-29T06:22:29.272Z,-3.82
2023-01-29T06:24:56.864Z,-3.84
2023-01-29T06:27:24.666Z,-3.81
2023-01-29T06:29:52.181Z,-3.82
2023-01-29T06:32:19.891Z,-3.87
2023-01-29T06:34:49.673Z,-3.91
2023-01-29T06:37:17.340Z,-3.92
2023-01-29T06:39:44.871Z,-3.93
2023-01-29T06:42:12.484Z,-3.94
2023-01-29T06:44:39.977Z,-3.94
2023-01-29T06:47:07.632Z,-3.91
2023-01-29T06:49:35.355Z,-3.91
2023-01-29T06:52:02.888Z,-3.92
2023-01-29T06:54:30.418Z,-3.92
2023-01-29T06:56:58.087Z,-3.94
2023-01-29T06:59:25.602Z,-3.93
2023-01-29T07:01:53.226Z,-3.95
2023-01-29T07:04:20.811Z,-3.97
2023-01-29T07:06:48.299Z,-3.97
2023-01-29T07:09:15.849Z,-3.98
2023-01-29T07:11:43.364Z,-3.96
2023-01-29T07:14:10.888Z,-3.94
2023-01-29T07:16:38.416Z,-3.91
2023-01-29T07:19:06.295Z,-3.90
2023-01-29T07:21:33.798Z,-3.91
2023-01-29T07:24:01.522Z,-3.94
2023-01-29T07:26:29.301Z,-3.93
2023-01-29T07:28:56.839Z,-3.94
2023-01-29T07:31:24.416Z,-3.96
2023-01-29T07:33:52.135Z,-3.97
2023-01-29T07:36:19.671Z,-3.95
2023-01-29T07:38:47.179Z,-3.93
2023-01-29T07:41:14.794Z,-3.92
2023-01-29T07:43:42.323Z,-3.91
2023-01-29T07:46:09.932Z,-3.91
2023-01-29T07:48:37.692Z,-3.97
2023-01-29T07:51:05.226Z,-4.03
2023-01-29T07:53:32.949Z,-4.08
2023-01-29T07:56:00.507Z,-4.15
2023-01-29T07:58:28.042Z,-4.21
2023-01-29T08:00:55.643Z,-4.28
2023-01-29T08:03:23.322Z,-4.33
2023-01-29T08:05:51.130Z,-4.40
2023-01-29T08:08:19.438Z,-4.48
2023-01-29T08:10:47.098Z,-4.52
2023-01-29T08:13:14.848Z,-4.59
2023-01-29T08:15:42.351Z,-4.68
2023-01-29T08:18:09.950Z,-4.74
2023-01-29T08:20:37.484Z,-4.81
2023-01-29T08:23:05.033Z,-4.85
2023-01-29T08:25:32.679Z,-4.95
2023-01-29T08:28:00.723Z,-4.98
2023-01-29T08:30:28.473Z,-5.04
2023-01-29T08:32:56.437Z,-5.06
2023-01-29T08:35:24.103Z,-5.09
2023-01-29T08:37:51.616Z,-5.15
2023-01-29T08:40:19.468Z,-5.21
2023-01-29T08:42:47.182Z,-5.23
2023-01-29T08:45:14.709Z,-5.24
2023-01-29T08:47:42.226Z,-5.24
2023-01-29T08:50:09.704Z,-5.25
2023-01-29T08:52:37.259Z,-5.24
2023-01-29T08:55:04.928Z,-5.27
2023-01-29T08:57:32.406Z,-5.28
2023-01-29T08:59:59.996Z,-5.28
2023-01-29T09:02:27.594Z,-5.30
2023-01-29T09:04:55.934Z,-5.33
2023-01-29T09:07:23.448Z,-5.32
2023-01-29T09:09:51.034Z,-5.36
2023-01-29T09:12:18.767Z,-5.33
2023-01-29T09:14:46.319Z,-5.26
2023-01-29T09:17:14.067Z,-5.27
2023-01-29T09:19:41.583Z,-5.27
2023-01-29T09:22:11.004Z,-5.25
2023-01-29T09:24:40.515Z,-5.17
2023-01-29T09:27:10.007Z,-5.15
2023-01-29T09:29:37.684Z,-5.18
2023-01-29T09:32:05.219Z,-5.13
2023-01-29T09:34:34.685Z,-5.11
2023-01-29T09:37:02.260Z,-5.11
2023-01-29T09:39:30.085Z,-5.09
2023-01-29T09:41:57.746Z,-5.06
2023-01-29T09:44:25.342Z,-5.04
2023-01-29T09:46:52.912Z,-5.03
2023-01-29T09:49:20.496Z,-5.00
2023-01-29T09:51:48.082Z,-4.93
2023-01-29T09:54:15.613Z,-4.86
2023-01-29T09:56:43.111Z,-4.81
2023-01-29T09:59:10.589Z,-4.82
2023-01-29T10:01:38.484Z,-4.83
2023-01-29T10:04:06.088Z,-4.82
2023-01-29T10:06:33.705Z,-4.78
2023-01-29T10:09:01.448Z,-4.75
2023-01-29T10:11:29.111Z,-4.78
2023-01-29T10:13:56.776Z,-4.81
2023-01-29T10:16:24.342Z,-4.80
2023-01-29T10:18:51.835Z,-4.77
2023-01-29T10:21:19.311Z,-4.80
2023-01-29T10:23:46.866Z,-4.84
2023-01-29T10:26:14.439Z,-4.82
2023-01-29T10:28:46.417Z,-4.80
2023-01-29T10:31:14.728Z,-4.77
2023-01-29T10:33:49.018Z,-4.73
2023-01-29T10:36:26.950Z,-4.67
2023-01-29T10:38:56.000Z,-4.64
2023-01-29T10:41:23.886Z,-4.57
2023-01-29T10:43:51.460Z,-4.47
2023-01-29T10:46:18.937Z,-4.38
2023-01-29T10:48:46.492Z,-4.35
2023-01-29T10:51:14.771Z,-4.30
2023-01-29T10:53:42.355Z,-4.19
2023-01-29T10:56:21.963Z,-4.14
2023-01-29T10:58:50.868Z,-4.18
2023-01-29T11:01:18.446Z,-4.18
2023-01-29T11:03:46.005Z,-4.18
2023-01-29T11:06:14.035Z,-4.17
2023-01-29T11:08:41.700Z,-4.07
2023-01-29T11:11:12.151Z,-3.99
2023-01-29T11:13:39.743Z,-3.98
2023-01-29T11:16:07.346Z,-4.03
2023-01-29T11:18:34.874Z,-4.07
2023-01-29T11:21:02.980Z,-4.09
2023-01-29T11:23:30.593Z,-4.04
2023-01-29T11:25:58.459Z,-3.95
2023-01-29T11:28:25.986Z,-3.90
2023-01-29T11:30:53.593Z,-3.90
2023-01-29T11:33:21.297Z,-3.92
2023-01-29T11:35:48.848Z,-3.96
2023-01-29T11:38:16.510Z,-3.95
2023-01-29T11:40:44.061Z,-3.92
2023-01-29T11:43:11.911Z,-3.92
2023-01-29T11:45:39.396Z,-3.89
2023-01-29T11:48:06.886Z,-3.86
2023-01-29T11:50:34.448Z,-3.85
2023-01-29T11:53:01.979Z,-3.87
2023-01-29T11:55:33.070Z,-3.80
2023-01-29T11:58:05.580Z,-3.74
2023-01-29T12:00:33.651Z,-3.70
2023-01-29T12:03:01.149Z,-3.69
2023-01-29T12:05:29.132Z,-3.63
2023-01-29T12:07:56.736Z,-3.55
2023-01-29T12:10:24.223Z,-3.53
2023-01-29T12:12:51.742Z,-3.52
2023-01-29T12:15:19.714Z,-3.50
2023-01-29T12:17:47.430Z,-3.55
2023-01-29T12:20:15.362Z,-3.71
2023-01-29T12:22:43.222Z,-3.81
2023-01-29T12:25:10.704Z,-3.89
2023-01-29T12:27:38.266Z,-3.91
2023-01-29T12:30:06.296Z,-3.93
2023-01-29T12:32:33.838Z,-3.96
2023-01-29T12:35:01.657Z,-4.01
2023-01-29T12:37:29.168Z,-3.99
2023-01-29T12:39:56.714Z,-4.00
2023-01-29T12:42:24.299Z,-3.98
2023-01-29T12:44:51.896Z,-3.92
2023-01-29T12:47:20.910Z,-3.85
2023-01-29T12:49:53.670Z,-3.79
2023-01-29T12:52:21.699Z,-3.76
2023-01-29T12:54:49.406Z,-3.77
2023-01-29T12:57:18.208Z,-3.81
2023-01-29T12:59:46.491Z,-3.81
2023-01-29T13:02:16.114Z,-3.80
2023-01-29T13:04:43.821Z,-3.82
2023-01-29T13:07:12.306Z,-3.83
2023-01-29T13:09:39.874Z,-3.80
2023-01-29T13:12:07.480Z,-3.78
2023-01-29T13:14:34.985Z,-3.84
2023-01-29T13:17:02.565Z,-3.85
2023-01-29T13:19:30.359Z,-3.84
2023-01-29T13:21:58.102Z,-3.80
2023-01-29T13:24:25.613Z,-3.74
2023-01-29T13:26:53.263Z,-3.78
2023-01-29T13:29:20.766Z,-3.88
2023-01-29T13:31:48.383Z,-3.97
2023-01-29T13:34:16.020Z,-4.03
2023-01-29T13:36:43.871Z,-4.09
2023-01-29T13:39:11.420Z,-4.11
2023-01-29T13:41:39.044Z,-4.14
2023-01-29T13:44:07.433Z,-4.07
2023-01-29T13:46:35.286Z,-3.97
2023-01-29T13:49:05.121Z,-4.05
2023-01-29T13:51:32.631Z,-4.13
2023-01-29T13:54:03.289Z,-4.19
2023-01-29T13:56:31.260Z,-4.25
2023-01-29T13:58:58.896Z,-4.29
2023-01-29T14:01:26.562Z,-4.32
2023-01-29T14:04:09.616Z,-4.34
2023-01-29T14:06:37.177Z,-4.39
2023-01-29T14:09:04.717Z,-4.40
2023-01-29T14:11:32.212Z,-4.43
2023-01-29T14:13:59.697Z,-4.44
2023-01-29T14:16:27.414Z,-4.46
2023-01-29T14:18:55.508Z,-4.44
2023-01-29T14:21:25.168Z,-4.43
2023-01-29T14:23:52.747Z,-4.43
2023-01-29T14:26:20.289Z,-4.39
2023-01-29T14:28:47.921Z,-4.32
2023-01-29T14:31:15.603Z,-4.27
2023-01-29T14:33:43.594Z,-4.21
2023-01-29T14:36:12.393Z,-4.17
2023-01-29T14:38:40.135Z,-4.11
2023-01-29T14:41:07.996Z,-4.09
2023-01-29T14:43:35.563Z,-4.03
2023-01-29T14:46:03.185Z,-3.97
2023-01-29T14:48:30.712Z,-3.94
2023-01-29T14:50:59.218Z,-3.91
2023-01-29T14:53:27.102Z,-3.92
2023-01-29T14:55:54.609Z,-3.97
2023-01-29T14:58:22.099Z,-4.02
2023-01-29T15:00:49.875Z,-4.05
2023-01-29T15:03:17.419Z,-4.11
2023-01-29T15:05:45.003Z,-4.12
2023-01-29T15:08:12.656Z,-4.15
2023-01-29T15:10:43.244Z,-4.20
2023-01-29T15:13:10.845Z,-4.30
2023-01-29T15:15:38.391Z,-4.36
2023-01-29T15:18:06.085Z,-4.39
2023-01-29T15:20:33.724Z,-4.43
2023-01-29T15:23:03.276Z,-4.49
2023-01-29T15:25:31.158Z,-4.51
2023-01-29T15:27:58.857Z,-4.53
2023-01-29T15:30:26.596Z,-4.62
2023-01-29T15:32:57.251Z,-4.74
2023-01-29T15:35:24.720Z,-4.83
2023-01-29T15:37:52.248Z,-4.88
2023-01-29T15:40:20.196Z,-4.87
2023-01-29T15:42:48.747Z,-4.84
2023-01-29T15:45:16.810Z,-4.81
2023-01-29T15:47:44.561Z,-4.80
2023-01-29T15:50:12.267Z,-4.82
2023-01-29T15:52:39.887Z,-4.81
2023-01-29T15:55:07.475Z,-4.81
2023-01-29T15:57:35.952Z,-4.79
2023-01-29T16:00:04.574Z,-4.80
2023-01-29T16:02:32.115Z,-4.79
2023-01-29T16:04:59.686Z,-4.79
2023-01-29T16:07:27.225Z,-4.84
2023-01-29T16:09:54.719Z,-4.88
2023-01-29T16:12:22.252Z,-4.93
2023-01-29T16:14:49.997Z,-5.03
2023-01-29T16:17:17.663Z,-5.09
2023-01-29T16:19:45.242Z,-5.13
2023-01-29T16:22:12.764Z,-5.13
2023-01-29T16:24:40.320Z,-5.09
2023-01-29T16:27:07.858Z,-5.11
2023-01-29T16:29:35.463Z,-5.21
2023-01-29T16:32:03.222Z,-5.30
2023-01-29T16:34:31.752Z,-5.40
2023-01-29T16:36:59.373Z,-5.42
2023-01-29T16:39:28.087Z,-5.40
2023-01-29T16:41:55.672Z,-5.38
2023-01-29T16:44:23.325Z,-5.37
2023-01-29T16:46:54.115Z,-5.36
2023-01-29T16:49:21.905Z,-5.36
2023-01-29T16:51:49.634Z,-5.39
2023-01-29T16:54:18.413Z,-5.43
2023-01-29T16:56:45.961Z,-5.47
2023-01-29T16:59:13.475Z,-5.47
2023-01-29T17:01:41.341Z,-5.47
2023-01-29T17:04:08.986Z,-5.45
2023-01-29T17:06:36.637Z,-5.45
2023-01-29T17:09:04.761Z,-5.56
2023-01-29T17:11:32.638Z,-5.69
2023-01-29T17:14:00.597Z,-5.78
2023-01-29T17:16:28.252Z,-5.83
2023-01-29T17:18:55.945Z,-5.80
2023-01-29T17:21:23.662Z,-5.78
2023-01-29T17:23:51.223Z,-5.78
2023-01-29T17:26:18.912Z,-5.82
2023-01-29T17:28:46.496Z,-5.86
2023-01-29T17:31:14.224Z,-5.94
2023-01-29T17:33:42.084Z,-6.01
2023-01-29T17:36:09.842Z,-6.09
2023-01-29T17:38:37.662Z,-6.12
2023-01-29T17:41:05.388Z,-6.17
2023-01-29T17:43:33.317Z,-6.23
2023-01-29T17:46:00.986Z,-6.32
2023-01-29T17:48:28.605Z,-6.47
2023-01-29T17:50:56.132Z,-6.70
2023-01-29T17:53:24.843Z,-6.90
2023-01-29T17:55:54.084Z,-7.03
2023-01-29T17:58:21.848Z,-7.13
2023-01-29T18:00:49.390Z,-7.17
2023-01-29T18:03:16.867Z,-7.14
2023-01-29T18:05:44.580Z,-7.08
2023-01-29T18:08:12.381Z,-7.03
2023-01-29T18:10:40.107Z,-7.02
2023-01-29T18:13:07.823Z,-7.03
2023-01-29T18:15:35.614Z,-7.06
2023-01-29T18:18:03.327Z,-7.04
2023-01-29T18:20:31.039Z,-7.03
2023-01-29T18:22:58.855Z,-7.00
2023-01-29T18:25:26.391Z,-6.94
2023-01-29T18:27:54.867Z,-6.91
2023-01-29T18:30:22.678Z,-7.02
2023-01-29T18:32:50.584Z,-7.09
2023-01-29T18:35:18.533Z,-7.09
2023-01-29T18:37:46.596Z,-7.08
2023-01-29T18:40:17.259Z,-7.05
2023-01-29T18:42:45.175Z,-7.02
2023-01-29T18:45:13.269Z,-6.97
2023-01-29T18:47:40.836Z,-6.98
2023-01-29T18:50:08.650Z,-7.04
2023-01-29T18:52:36.584Z,-7.09
2023-01-29T18:55:04.309Z,-7.13
2023-01-29T18:58:28.251Z,-7.19
2023-01-29T19:00:20.093Z,-7.24
2023-01-29T19:02:47.924Z,-7.22
2023-01-29T19:05:16.981Z,-7.26
2023-01-29T19:07:45.195Z,-7.26
2023-01-29T19:10:13.061Z,-7.26
2023-01-29T19:12:42.268Z,-7.24
2023-01-29T19:15:09.819Z,-7.24
2023-01-29T19:17:37.434Z,-7.22
2023-01-29T19:20:05.220Z,-7.25
2023-01-29T19:22:32.746Z,-7.27
2023-01-29T19:25:00.643Z,-7.35
2023-01-29T19:27:30.678Z,-7.41
2023-01-29T19:29:59.451Z,-7.41
2023-01-29T19:32:29.096Z,-7.41
2023-01-29T19:34:57.856Z,-7.41
2023-01-29T19:37:25.570Z,-7.43
2023-01-29T19:39:54.049Z,-7.46
2023-01-29T19:42:21.624Z,-7.44
2023-01-29T19:44:51.043Z,-7.43
2023-01-29T19:47:19.002Z,-7.41
2023-01-29T19:49:46.900Z,-7.39
2023-01-29T19:52:51.254Z,-7.45
2023-01-29T19:55:19.837Z,-7.53
2023-01-29T19:57:48.269Z,-7.55
2023-01-29T20:00:17.663Z,-7.54
2023-01-29T20:02:45.606Z,-7.50
2023-01-29T20:05:13.323Z,-7.45
2023-01-29T20:07:42.570Z,-7.39
2023-01-29T20:10:11.722Z,-7.34
2023-01-29T20:12:39.367Z,-7.28
2023-01-29T20:15:07.687Z,-7.20
2023-01-29T20:17:35.501Z,-7.13
2023-01-29T20:20:04.135Z,-7.03
2023-01-29T20:22:31.653Z,-6.98
2023-01-29T20:25:00.410Z,-7.07
2023-01-29T20:27:28.120Z,-7.14
2023-01-29T20:29:55.964Z,-7.17
2023-01-29T20:32:23.681Z,-7.16
2023-01-29T20:34:52.399Z,-7.18
2023-01-29T20:37:20.186Z,-7.21
2023-01-29T20:39:47.912Z,-7.28
2023-01-29T20:42:18.065Z,-7.32
2023-01-29T20:44:45.728Z,-7.35
2023-01-29T20:47:13.749Z,-7.35
2023-01-29T20:49:41.422Z,-7.31
2023-01-29T20:52:10.742Z,-7.25
2023-01-29T20:54:38.280Z,-7.21
2023-01-29T20:57:05.976Z,-7.19
2023-01-29T20:59:33.855Z,-7.15
2023-01-29T21:02:01.448Z,-7.12
2023-01-29T21:04:31.355Z,-7.09
2023-01-29T21:06:59.010Z,-7.04
2023-01-29T21:09:26.711Z,-7.04
2023-01-29T21:11:54.619Z,-7.03
2023-01-29T21:14:22.308Z,-7.03
2023-01-29T21:16:49.952Z,-6.99
2023-01-29T21:19:17.608Z,-6.96
2023-01-29T21:21:45.218Z,-6.91
2023-01-29T21:24:13.013Z,-6.88
2023-01-29T21:26:40.846Z,-6.84
2023-01-29T21:29:08.494Z,-6.82
2023-01-29T21:31:36.125Z,-6.79
2023-01-29T21:34:05.171Z,-6.78
2023-01-29T21:36:32.933Z,-6.76
2023-01-29T21:39:00.550Z,-6.74
2023-01-29T21:41:47.418Z,-6.68
2023-01-29T21:44:15.631Z,-6.63
2023-01-29T21:46:43.172Z,-6.45
2023-01-29T21:49:10.737Z,-6.32
2023-01-29T21:51:38.403Z,-6.31
2023-01-29T21:54:05.883Z,-6.31
2023-01-29T21:56:33.390Z,-6.28
2023-01-29T21:59:02.278Z,-6.25
2023-01-29T22:01:37.644Z,-6.23
2023-01-29T22:04:08.702Z,-6.25
2023-01-29T22:06:36.314Z,-6.27
2023-01-29T22:09:03.935Z,-6.28
2023-01-29T22:11:31.600Z,-6.32
2023-01-29T22:14:01.262Z,-6.32
2023-01-29T22:16:29.877Z,-6.33
2023-01-29T22:18:57.422Z,-6.32
2023-01-29T22:21:24.930Z,-6.28
2023-01-29T22:23:52.500Z,-6.24
2023-01-29T22:26:20.145Z,-6.21
2023-01-29T22:28:47.718Z,-6.19
2023-01-29T22:31:15.353Z,-6.17
2023-01-29T22:33:42.970Z,-6.16
2023-01-29T22:36:10.601Z,-6.13
2023-01-29T22:38:38.192Z,-6.10
2023-01-29T22:41:05.941Z,-6.10
2023-01-29T22:43:33.432Z,-6.11
2023-01-29T22:46:00.944Z,-6.18
2023-01-29T22:48:30.639Z,-6.24
2023-01-29T22:51:09.431Z,-6.27
2023-01-29T22:53:37.791Z,-6.30
2023-01-29T22:56:05.312Z,-6.35
2023-01-29T22:58:32.785Z,-6.41
2023-01-29T23:01:00.356Z,-6.45
2023-01-29T23:03:27.815Z,-6.45
2023-01-29T23:05:55.310Z,-6.47
2023-01-29T23:08:22.881Z,-6.53
2023-01-29T23:10:50.386Z,-6.55
2023-01-29T23:13:18.232Z,-6.52
2023-01-29T23:15:45.786Z,-6.52
2023-01-29T23:18:13.441Z,-6.51
2023-01-29T23:20:40.964Z,-6.51
2023-01-29T23:23:08.546Z,-6.49
2023-01-29T23:25:54.814Z,-6.45
2023-01-29T23:28:22.492Z,-6.41
2023-01-29T23:30:52.042Z,-6.38
2023-01-29T23:33:21.810Z,-6.37
2023-01-29T23:35:49.441Z,-6.38
2023-01-29T23:38:17.104Z,-6.38
2023-01-29T23:40:45.619Z,-6.36
2023-01-29T23:43:13.253Z,-6.31
2023-01-29T23:45:40.737Z,-6.28
2023-01-29T23:48:08.242Z,-6.25
2023-01-29T23:50:35.788Z,-6.22
2023-01-29T23:53:03.261Z,-6.19
2023-01-29T23:55:30.852Z,-6.20
2023-01-29T23:57:58.372Z,-6.20
